sensor_id;sensor_type;location;lat;lon;timestamp;P1;durP1;ratioP1;P2;durP2;ratioP2
3647;SDS011;1840;48.892;15.312;2022-12-29T00:02:15;22.10;;;12.63;;
3647;SDS011;1840;48.892;15.312;2022-12-29T00:04:44;19.70;;;11.93;;
3647;SDS011;1840;48.892;15.312;2022-12-29T00:07:12;20.33;;;11.40;;
3647;SDS011;1840;48.892;15.312;2022-12-29T00:09:40;18.10;;;10.13;;
3647;SDS011;1840;48.892;15.312;2022-12-29T00:12:08;20.13;;;11.40;;
3647;SDS011;1840;48.892;15.312;2022-12-29T00:14:36;25.13;;;11.53;;
3647;SDS011;1840;48.892;15.312;2022-12-29T00:17:22;17.00;;;9.77;;
3647;SDS011;1840;48.892;15.312;2022-12-29T00:19:51;19.00;;;9.93;;
3647;SDS011;1840;48.892;15.312;2022-12-29T00:22:37;17.80;;;11.30;;
3647;SDS011;1840;48.892;15.312;2022-12-29T00:25:22;17.50;;;10.30;;
3647;SDS011;1840;48.892;15.312;2022-12-29T00:28:08;18.40;;;10.20;;
3647;SDS011;1840;48.892;15.312;2022-12-29T00:30:53;17.43;;;9.83;;
3647;SDS011;1840;48.892;15.312;2022-12-29T00:33:43;19.50;;;9.53;;
3647;SDS011;1840;48.892;15.312;2022-12-29T00:36:30;22.07;;;10.70;;
3647;SDS011;1840;48.892;15.312;2022-12-29T00:39:02;23.53;;;9.90;;
3647;SDS011;1840;48.892;15.312;2022-12-29T00:41:50;18.03;;;10.07;;
3647;SDS011;1840;48.892;15.312;2022-12-29T00:44:44;20.40;;;12.47;;
3647;SDS011;1840;48.892;15.312;2022-12-29T00:47:12;19.87;;;10.27;;
3647;SDS011;1840;48.892;15.312;2022-12-29T00:49:40;18.67;;;11.27;;
3647;SDS011;1840;48.892;15.312;2022-12-29T00:52:10;27.13;;;13.37;;
3647;SDS011;1840;48.892;15.312;2022-12-29T00:54:40;25.83;;;13.80;;
3647;SDS011;1840;48.892;15.312;2022-12-29T00:57:11;20.13;;;12.73;;
3647;SDS011;1840;48.892;15.312;2022-12-29T00:59:40;20.60;;;11.70;;
3647;SDS011;1840;48.892;15.312;2022-12-29T01:02:09;20.90;;;10.53;;
3647;SDS011;1840;48.892;15.312;2022-12-29T01:04:38;20.20;;;11.83;;
3647;SDS011;1840;48.892;15.312;2022-12-29T01:07:05;19.53;;;10.63;;
3647;SDS011;1840;48.892;15.312;2022-12-29T01:09:35;20.50;;;12.07;;
3647;SDS011;1840;48.892;15.312;2022-12-29T01:12:20;22.00;;;10.60;;
3647;SDS011;1840;48.892;15.312;2022-12-29T01:15:07;18.70;;;11.23;;
3647;SDS011;1840;48.892;15.312;2022-12-29T01:17:36;21.73;;;11.40;;
3647;SDS011;1840;48.892;15.312;2022-12-29T01:20:05;25.53;;;12.23;;
3647;SDS011;1840;48.892;15.312;2022-12-29T01:22:33;28.43;;;12.57;;
3647;SDS011;1840;48.892;15.312;2022-12-29T01:25:03;20.80;;;10.73;;
3647;SDS011;1840;48.892;15.312;2022-12-29T01:27:32;21.60;;;11.30;;
3647;SDS011;1840;48.892;15.312;2022-12-29T01:30:00;25.20;;;13.73;;
3647;SDS011;1840;48.892;15.312;2022-12-29T01:32:28;24.93;;;13.43;;
3647;SDS011;1840;48.892;15.312;2022-12-29T01:34:57;27.80;;;14.73;;
3647;SDS011;1840;48.892;15.312;2022-12-29T01:37:25;41.27;;;15.87;;
3647;SDS011;1840;48.892;15.312;2022-12-29T01:39:53;25.33;;;13.80;;
3647;SDS011;1840;48.892;15.312;2022-12-29T01:42:24;21.97;;;10.60;;
3647;SDS011;1840;48.892;15.312;2022-12-29T01:44:53;20.00;;;11.00;;
3647;SDS011;1840;48.892;15.312;2022-12-29T01:47:25;19.10;;;11.43;;
3647;SDS011;1840;48.892;15.312;2022-12-29T01:50:01;30.90;;;12.93;;
3647;SDS011;1840;48.892;15.312;2022-12-29T01:52:33;24.00;;;11.63;;
3647;SDS011;1840;48.892;15.312;2022-12-29T01:55:04;17.97;;;11.33;;
3647;SDS011;1840;48.892;15.312;2022-12-29T01:57:36;22.17;;;10.90;;
3647;SDS011;1840;48.892;15.312;2022-12-29T02:00:08;18.07;;;10.13;;
3647;SDS011;1840;48.892;15.312;2022-12-29T02:02:39;16.90;;;10.20;;
3647;SDS011;1840;48.892;15.312;2022-12-29T02:05:10;19.37;;;11.13;;
3647;SDS011;1840;48.892;15.312;2022-12-29T02:07:43;18.63;;;10.50;;
3647;SDS011;1840;48.892;15.312;2022-12-29T02:10:12;19.43;;;10.63;;
3647;SDS011;1840;48.892;15.312;2022-12-29T02:12:42;17.03;;;10.43;;
3647;SDS011;1840;48.892;15.312;2022-12-29T02:15:10;21.93;;;12.43;;
3647;SDS011;1840;48.892;15.312;2022-12-29T02:17:42;18.87;;;10.80;;
3647;SDS011;1840;48.892;15.312;2022-12-29T02:20:44;19.27;;;11.07;;
3647;SDS011;1840;48.892;15.312;2022-12-29T02:23:46;21.37;;;12.47;;
3647;SDS011;1840;48.892;15.312;2022-12-29T02:26:51;22.37;;;11.73;;
3647;SDS011;1840;48.892;15.312;2022-12-29T02:29:48;20.40;;;11.87;;
3647;SDS011;1840;48.892;15.312;2022-12-29T02:32:31;16.73;;;10.93;;
3647;SDS011;1840;48.892;15.312;2022-12-29T02:35:07;18.50;;;10.37;;
3647;SDS011;1840;48.892;15.312;2022-12-29T02:37:40;16.50;;;10.13;;
3647;SDS011;1840;48.892;15.312;2022-12-29T02:40:14;19.00;;;9.97;;
3647;SDS011;1840;48.892;15.312;2022-12-29T02:42:48;22.00;;;12.03;;
3647;SDS011;1840;48.892;15.312;2022-12-29T02:45:25;24.17;;;12.17;;
3647;SDS011;1840;48.892;15.312;2022-12-29T02:48:03;19.13;;;10.80;;
3647;SDS011;1840;48.892;15.312;2022-12-29T02:50:36;20.80;;;11.07;;
3647;SDS011;1840;48.892;15.312;2022-12-29T02:53:07;26.80;;;11.00;;
3647;SDS011;1840;48.892;15.312;2022-12-29T02:55:38;22.63;;;11.60;;
3647;SDS011;1840;48.892;15.312;2022-12-29T02:58:15;22.77;;;13.07;;
3647;SDS011;1840;48.892;15.312;2022-12-29T03:00:48;21.83;;;11.20;;
3647;SDS011;1840;48.892;15.312;2022-12-29T03:03:32;18.67;;;11.10;;
3647;SDS011;1840;48.892;15.312;2022-12-29T03:06:12;17.03;;;9.33;;
3647;SDS011;1840;48.892;15.312;2022-12-29T03:08:51;17.10;;;9.73;;
3647;SDS011;1840;48.892;15.312;2022-12-29T03:11:27;18.70;;;10.40;;
3647;SDS011;1840;48.892;15.312;2022-12-29T03:14:20;15.73;;;10.23;;
3647;SDS011;1840;48.892;15.312;2022-12-29T03:17:14;17.10;;;9.40;;
3647;SDS011;1840;48.892;15.312;2022-12-29T03:19:53;17.83;;;9.40;;
3647;SDS011;1840;48.892;15.312;2022-12-29T03:22:27;20.80;;;10.27;;
3647;SDS011;1840;48.892;15.312;2022-12-29T03:25:00;19.70;;;10.33;;
3647;SDS011;1840;48.892;15.312;2022-12-29T03:27:31;20.73;;;11.17;;
3647;SDS011;1840;48.892;15.312;2022-12-29T03:30:04;21.40;;;12.13;;
3647;SDS011;1840;48.892;15.312;2022-12-29T03:32:36;25.50;;;9.77;;
3647;SDS011;1840;48.892;15.312;2022-12-29T03:35:10;23.97;;;10.83;;
3647;SDS011;1840;48.892;15.312;2022-12-29T03:37:43;14.80;;;9.00;;
3647;SDS011;1840;48.892;15.312;2022-12-29T03:40:17;18.47;;;8.80;;
3647;SDS011;1840;48.892;15.312;2022-12-29T03:42:48;16.87;;;9.50;;
3647;SDS011;1840;48.892;15.312;2022-12-29T03:45:16;17.87;;;9.23;;
3647;SDS011;1840;48.892;15.312;2022-12-29T03:47:44;13.83;;;9.00;;
3647;SDS011;1840;48.892;15.312;2022-12-29T03:50:14;13.50;;;7.60;;
3647;SDS011;1840;48.892;15.312;2022-12-29T03:52:43;14.40;;;9.13;;
3647;SDS011;1840;48.892;15.312;2022-12-29T03:55:11;16.50;;;9.00;;
3647;SDS011;1840;48.892;15.312;2022-12-29T03:57:39;15.27;;;9.40;;
3647;SDS011;1840;48.892;15.312;2022-12-29T04:00:08;14.73;;;8.30;;
3647;SDS011;1840;48.892;15.312;2022-12-29T04:02:37;19.50;;;10.60;;
3647;SDS011;1840;48.892;15.312;2022-12-29T04:05:05;16.87;;;9.33;;
3647;SDS011;1840;48.892;15.312;2022-12-29T04:07:35;16.63;;;10.33;;
3647;SDS011;1840;48.892;15.312;2022-12-29T04:10:03;22.57;;;12.43;;
3647;SDS011;1840;48.892;15.312;2022-12-29T04:12:32;18.90;;;10.93;;
3647;SDS011;1840;48.892;15.312;2022-12-29T04:15:00;17.77;;;10.27;;
3647;SDS011;1840;48.892;15.312;2022-12-29T04:17:28;15.63;;;9.87;;
3647;SDS011;1840;48.892;15.312;2022-12-29T04:19:56;19.33;;;10.23;;
3647;SDS011;1840;48.892;15.312;2022-12-29T04:22:45;20.80;;;10.40;;
3647;SDS011;1840;48.892;15.312;2022-12-29T04:25:13;19.03;;;10.80;;
3647;SDS011;1840;48.892;15.312;2022-12-29T04:27:43;21.40;;;9.70;;
3647;SDS011;1840;48.892;15.312;2022-12-29T04:30:11;15.23;;;9.17;;
3647;SDS011;1840;48.892;15.312;2022-12-29T04:32:40;18.83;;;10.00;;
3647;SDS011;1840;48.892;15.312;2022-12-29T04:35:08;18.83;;;9.67;;
3647;SDS011;1840;48.892;15.312;2022-12-29T04:37:36;21.70;;;11.83;;
3647;SDS011;1840;48.892;15.312;2022-12-29T04:40:06;20.00;;;11.30;;
3647;SDS011;1840;48.892;15.312;2022-12-29T04:42:35;17.70;;;9.93;;
3647;SDS011;1840;48.892;15.312;2022-12-29T04:45:03;18.03;;;9.80;;
3647;SDS011;1840;48.892;15.312;2022-12-29T04:47:32;18.13;;;10.10;;
3647;SDS011;1840;48.892;15.312;2022-12-29T04:50:00;21.00;;;11.27;;
3647;SDS011;1840;48.892;15.312;2022-12-29T04:52:28;22.50;;;10.60;;
3647;SDS011;1840;48.892;15.312;2022-12-29T04:54:56;21.50;;;11.40;;
3647;SDS011;1840;48.892;15.312;2022-12-29T04:57:25;21.97;;;12.90;;
3647;SDS011;1840;48.892;15.312;2022-12-29T04:59:53;17.90;;;10.40;;
3647;SDS011;1840;48.892;15.312;2022-12-29T05:02:21;21.93;;;11.90;;
3647;SDS011;1840;48.892;15.312;2022-12-29T05:04:50;16.23;;;10.07;;
3647;SDS011;1840;48.892;15.312;2022-12-29T05:07:18;22.70;;;13.27;;
3647;SDS011;1840;48.892;15.312;2022-12-29T05:09:46;18.37;;;10.40;;
3647;SDS011;1840;48.892;15.312;2022-12-29T05:12:14;23.97;;;12.37;;
3647;SDS011;1840;48.892;15.312;2022-12-29T05:14:44;20.40;;;12.03;;
3647;SDS011;1840;48.892;15.312;2022-12-29T05:17:12;21.10;;;11.83;;
3647;SDS011;1840;48.892;15.312;2022-12-29T05:19:40;20.60;;;11.17;;
3647;SDS011;1840;48.892;15.312;2022-12-29T05:22:08;25.00;;;13.40;;
3647;SDS011;1840;48.892;15.312;2022-12-29T05:24:36;21.30;;;12.50;;
3647;SDS011;1840;48.892;15.312;2022-12-29T05:27:04;28.20;;;16.10;;
3647;SDS011;1840;48.892;15.312;2022-12-29T05:29:32;29.07;;;15.53;;
3647;SDS011;1840;48.892;15.312;2022-12-29T05:32:02;39.87;;;22.13;;
3647;SDS011;1840;48.892;15.312;2022-12-29T05:34:30;24.83;;;13.77;;
3647;SDS011;1840;48.892;15.312;2022-12-29T05:36:59;20.20;;;12.03;;
3647;SDS011;1840;48.892;15.312;2022-12-29T05:39:28;19.87;;;11.60;;
3647;SDS011;1840;48.892;15.312;2022-12-29T05:41:56;22.53;;;11.90;;
3647;SDS011;1840;48.892;15.312;2022-12-29T05:44:24;30.03;;;15.83;;
3647;SDS011;1840;48.892;15.312;2022-12-29T05:46:53;19.97;;;11.27;;
3647;SDS011;1840;48.892;15.312;2022-12-29T05:49:22;21.00;;;12.00;;
3647;SDS011;1840;48.892;15.312;2022-12-29T05:51:50;16.37;;;10.77;;
3647;SDS011;1840;48.892;15.312;2022-12-29T05:54:18;16.50;;;10.30;;
3647;SDS011;1840;48.892;15.312;2022-12-29T05:56:48;19.43;;;10.63;;
3647;SDS011;1840;48.892;15.312;2022-12-29T05:59:16;21.67;;;10.80;;
3647;SDS011;1840;48.892;15.312;2022-12-29T06:01:44;22.33;;;12.17;;
3647;SDS011;1840;48.892;15.312;2022-12-29T06:04:12;18.53;;;10.70;;
3647;SDS011;1840;48.892;15.312;2022-12-29T06:06:42;18.87;;;11.93;;
3647;SDS011;1840;48.892;15.312;2022-12-29T06:09:10;23.27;;;11.80;;
3647;SDS011;1840;48.892;15.312;2022-12-29T06:11:38;17.43;;;10.80;;
3647;SDS011;1840;48.892;15.312;2022-12-29T06:14:06;23.83;;;11.83;;
3647;SDS011;1840;48.892;15.312;2022-12-29T06:16:34;18.97;;;10.87;;
3647;SDS011;1840;48.892;15.312;2022-12-29T06:19:02;17.30;;;11.00;;
3647;SDS011;1840;48.892;15.312;2022-12-29T06:21:33;14.97;;;9.80;;
3647;SDS011;1840;48.892;15.312;2022-12-29T06:24:03;17.57;;;10.67;;
3647;SDS011;1840;48.892;15.312;2022-12-29T06:26:31;17.03;;;10.30;;
3647;SDS011;1840;48.892;15.312;2022-12-29T06:28:59;19.23;;;11.70;;
3647;SDS011;1840;48.892;15.312;2022-12-29T06:31:29;18.47;;;9.90;;
3647;SDS011;1840;48.892;15.312;2022-12-29T06:33:57;21.23;;;11.73;;
3647;SDS011;1840;48.892;15.312;2022-12-29T06:36:33;25.87;;;11.27;;
3647;SDS011;1840;48.892;15.312;2022-12-29T06:39:02;21.57;;;11.90;;
3647;SDS011;1840;48.892;15.312;2022-12-29T06:41:30;26.70;;;13.13;;
3647;SDS011;1840;48.892;15.312;2022-12-29T06:43:58;26.93;;;14.40;;
3647;SDS011;1840;48.892;15.312;2022-12-29T06:46:26;26.07;;;16.47;;
3647;SDS011;1840;48.892;15.312;2022-12-29T06:48:55;31.43;;;17.23;;
3647;SDS011;1840;48.892;15.312;2022-12-29T06:51:23;29.50;;;16.67;;
3647;SDS011;1840;48.892;15.312;2022-12-29T06:53:51;28.23;;;17.80;;
3647;SDS011;1840;48.892;15.312;2022-12-29T06:56:20;29.70;;;16.80;;
3647;SDS011;1840;48.892;15.312;2022-12-29T06:58:49;29.57;;;15.83;;
3647;SDS011;1840;48.892;15.312;2022-12-29T07:01:19;25.63;;;13.30;;
3647;SDS011;1840;48.892;15.312;2022-12-29T07:03:48;21.53;;;12.90;;
3647;SDS011;1840;48.892;15.312;2022-12-29T07:06:16;25.13;;;15.90;;
3647;SDS011;1840;48.892;15.312;2022-12-29T07:08:44;29.43;;;15.90;;
3647;SDS011;1840;48.892;15.312;2022-12-29T07:11:12;36.47;;;20.27;;
3647;SDS011;1840;48.892;15.312;2022-12-29T07:13:41;38.37;;;19.33;;
3647;SDS011;1840;48.892;15.312;2022-12-29T07:16:09;42.60;;;21.17;;
3647;SDS011;1840;48.892;15.312;2022-12-29T07:18:38;27.97;;;15.00;;
3647;SDS011;1840;48.892;15.312;2022-12-29T07:21:06;24.50;;;15.53;;
3647;SDS011;1840;48.892;15.312;2022-12-29T07:23:34;22.87;;;13.53;;
3647;SDS011;1840;48.892;15.312;2022-12-29T07:26:02;25.67;;;15.20;;
3647;SDS011;1840;48.892;15.312;2022-12-29T07:28:32;22.37;;;13.20;;
3647;SDS011;1840;48.892;15.312;2022-12-29T07:31:03;23.93;;;13.00;;
3647;SDS011;1840;48.892;15.312;2022-12-29T07:33:31;19.73;;;12.23;;
3647;SDS011;1840;48.892;15.312;2022-12-29T07:36:00;22.93;;;14.40;;
3647;SDS011;1840;48.892;15.312;2022-12-29T07:38:28;22.60;;;15.17;;
3647;SDS011;1840;48.892;15.312;2022-12-29T07:40:56;25.93;;;14.53;;
3647;SDS011;1840;48.892;15.312;2022-12-29T07:43:25;30.87;;;16.50;;
3647;SDS011;1840;48.892;15.312;2022-12-29T07:45:53;29.80;;;17.03;;
3647;SDS011;1840;48.892;15.312;2022-12-29T07:48:23;32.57;;;18.47;;
3647;SDS011;1840;48.892;15.312;2022-12-29T07:50:51;30.60;;;18.50;;
3647;SDS011;1840;48.892;15.312;2022-12-29T07:53:19;41.53;;;21.97;;
3647;SDS011;1840;48.892;15.312;2022-12-29T07:55:48;38.47;;;21.50;;
3647;SDS011;1840;48.892;15.312;2022-12-29T07:58:16;39.00;;;23.53;;
3647;SDS011;1840;48.892;15.312;2022-12-29T08:00:45;41.10;;;24.33;;
3647;SDS011;1840;48.892;15.312;2022-12-29T08:03:13;43.90;;;25.77;;
3647;SDS011;1840;48.892;15.312;2022-12-29T08:05:42;44.13;;;25.07;;
3647;SDS011;1840;48.892;15.312;2022-12-29T08:08:10;51.83;;;28.20;;
3647;SDS011;1840;48.892;15.312;2022-12-29T08:10:38;42.57;;;25.57;;
3647;SDS011;1840;48.892;15.312;2022-12-29T08:13:06;47.43;;;26.80;;
3647;SDS011;1840;48.892;15.312;2022-12-29T08:15:34;62.73;;;32.20;;
3647;SDS011;1840;48.892;15.312;2022-12-29T08:18:02;56.30;;;30.57;;
3647;SDS011;1840;48.892;15.312;2022-12-29T08:20:31;54.77;;;31.50;;
3647;SDS011;1840;48.892;15.312;2022-12-29T08:23:01;53.23;;;32.23;;
3647;SDS011;1840;48.892;15.312;2022-12-29T08:25:29;46.43;;;27.80;;
3647;SDS011;1840;48.892;15.312;2022-12-29T08:27:57;54.23;;;29.40;;
3647;SDS011;1840;48.892;15.312;2022-12-29T08:30:24;46.47;;;25.93;;
3647;SDS011;1840;48.892;15.312;2022-12-29T08:32:53;41.57;;;25.30;;
3647;SDS011;1840;48.892;15.312;2022-12-29T08:35:21;40.77;;;24.90;;
3647;SDS011;1840;48.892;15.312;2022-12-29T08:37:49;39.27;;;23.53;;
3647;SDS011;1840;48.892;15.312;2022-12-29T08:40:18;46.53;;;24.13;;
3647;SDS011;1840;48.892;15.312;2022-12-29T08:42:46;36.37;;;22.83;;
3647;SDS011;1840;48.892;15.312;2022-12-29T08:45:14;37.50;;;20.63;;
3647;SDS011;1840;48.892;15.312;2022-12-29T08:47:43;35.47;;;20.57;;
3647;SDS011;1840;48.892;15.312;2022-12-29T08:50:11;35.03;;;21.67;;
3647;SDS011;1840;48.892;15.312;2022-12-29T08:52:39;35.33;;;21.20;;
3647;SDS011;1840;48.892;15.312;2022-12-29T08:55:07;34.83;;;21.03;;
3647;SDS011;1840;48.892;15.312;2022-12-29T08:57:37;40.83;;;25.70;;
3647;SDS011;1840;48.892;15.312;2022-12-29T09:00:05;44.93;;;26.70;;
3647;SDS011;1840;48.892;15.312;2022-12-29T09:02:34;52.10;;;28.43;;
3647;SDS011;1840;48.892;15.312;2022-12-29T09:05:03;65.40;;;31.27;;
3647;SDS011;1840;48.892;15.312;2022-12-29T09:07:31;48.57;;;26.97;;
3647;SDS011;1840;48.892;15.312;2022-12-29T09:09:59;53.23;;;30.03;;
3647;SDS011;1840;48.892;15.312;2022-12-29T09:12:27;49.53;;;31.27;;
3647;SDS011;1840;48.892;15.312;2022-12-29T09:15:03;55.60;;;31.00;;
3647;SDS011;1840;48.892;15.312;2022-12-29T09:17:32;45.97;;;30.00;;
3647;SDS011;1840;48.892;15.312;2022-12-29T09:20:10;52.60;;;29.30;;
3647;SDS011;1840;48.892;15.312;2022-12-29T09:22:40;50.37;;;29.67;;
3647;SDS011;1840;48.892;15.312;2022-12-29T09:25:08;44.23;;;26.83;;
3647;SDS011;1840;48.892;15.312;2022-12-29T09:27:37;48.20;;;28.13;;
3647;SDS011;1840;48.892;15.312;2022-12-29T09:30:08;44.97;;;28.13;;
3647;SDS011;1840;48.892;15.312;2022-12-29T09:32:38;49.70;;;26.27;;
3647;SDS011;1840;48.892;15.312;2022-12-29T09:35:11;56.50;;;29.50;;
3647;SDS011;1840;48.892;15.312;2022-12-29T09:37:39;43.70;;;28.30;;
3647;SDS011;1840;48.892;15.312;2022-12-29T09:40:10;56.70;;;29.57;;
3647;SDS011;1840;48.892;15.312;2022-12-29T09:42:54;53.00;;;28.87;;
3647;SDS011;1840;48.892;15.312;2022-12-29T09:45:35;50.70;;;29.63;;
3647;SDS011;1840;48.892;15.312;2022-12-29T09:48:11;50.53;;;27.93;;
3647;SDS011;1840;48.892;15.312;2022-12-29T09:50:43;43.70;;;25.00;;
3647;SDS011;1840;48.892;15.312;2022-12-29T09:53:15;42.53;;;26.40;;
3647;SDS011;1840;48.892;15.312;2022-12-29T09:55:50;43.30;;;25.63;;
3647;SDS011;1840;48.892;15.312;2022-12-29T09:58:21;37.17;;;24.63;;
3647;SDS011;1840;48.892;15.312;2022-12-29T10:00:58;45.97;;;27.20;;
3647;SDS011;1840;48.892;15.312;2022-12-29T10:03:32;44.93;;;25.97;;
3647;SDS011;1840;48.892;15.312;2022-12-29T10:06:10;43.77;;;26.27;;
3647;SDS011;1840;48.892;15.312;2022-12-29T10:08:44;48.60;;;27.97;;
3647;SDS011;1840;48.892;15.312;2022-12-29T10:11:23;43.13;;;25.50;;
3647;SDS011;1840;48.892;15.312;2022-12-29T10:14:03;40.13;;;25.37;;
3647;SDS011;1840;48.892;15.312;2022-12-29T10:16:45;42.63;;;26.17;;
3647;SDS011;1840;48.892;15.312;2022-12-29T10:19:23;43.97;;;26.33;;
3647;SDS011;1840;48.892;15.312;2022-12-29T10:22:16;44.47;;;25.90;;
3647;SDS011;1840;48.892;15.312;2022-12-29T10:24:50;44.13;;;25.97;;
3647;SDS011;1840;48.892;15.312;2022-12-29T10:27:22;44.03;;;26.00;;
3647;SDS011;1840;48.892;15.312;2022-12-29T10:29:52;40.83;;;24.93;;
3647;SDS011;1840;48.892;15.312;2022-12-29T10:32:26;44.20;;;25.17;;
3647;SDS011;1840;48.892;15.312;2022-12-29T10:35:00;42.67;;;26.40;;
3647;SDS011;1840;48.892;15.312;2022-12-29T10:37:34;44.57;;;26.20;;
3647;SDS011;1840;48.892;15.312;2022-12-29T10:40:13;42.40;;;24.50;;
3647;SDS011;1840;48.892;15.312;2022-12-29T10:42:47;41.93;;;26.03;;
3647;SDS011;1840;48.892;15.312;2022-12-29T10:45:19;42.07;;;25.00;;
3647;SDS011;1840;48.892;15.312;2022-12-29T10:47:54;42.53;;;23.93;;
3647;SDS011;1840;48.892;15.312;2022-12-29T10:50:27;41.03;;;23.47;;
3647;SDS011;1840;48.892;15.312;2022-12-29T10:52:56;39.27;;;23.67;;
3647;SDS011;1840;48.892;15.312;2022-12-29T10:55:28;37.73;;;24.90;;
3647;SDS011;1840;48.892;15.312;2022-12-29T10:58:00;39.40;;;23.03;;
3647;SDS011;1840;48.892;15.312;2022-12-29T11:00:32;44.03;;;25.23;;
3647;SDS011;1840;48.892;15.312;2022-12-29T11:03:11;40.60;;;22.67;;
3647;SDS011;1840;48.892;15.312;2022-12-29T11:05:55;43.40;;;22.63;;
3647;SDS011;1840;48.892;15.312;2022-12-29T11:08:27;38.10;;;22.97;;
3647;SDS011;1840;48.892;15.312;2022-12-29T11:11:01;36.60;;;23.20;;
3647;SDS011;1840;48.892;15.312;2022-12-29T11:13:31;37.83;;;23.13;;
3647;SDS011;1840;48.892;15.312;2022-12-29T11:16:04;40.63;;;23.20;;
3647;SDS011;1840;48.892;15.312;2022-12-29T11:18:35;42.73;;;22.90;;
3647;SDS011;1840;48.892;15.312;2022-12-29T11:21:05;41.57;;;24.83;;
3647;SDS011;1840;48.892;15.312;2022-12-29T11:23:54;44.40;;;21.97;;
3647;SDS011;1840;48.892;15.312;2022-12-29T11:26:24;37.90;;;22.57;;
3647;SDS011;1840;48.892;15.312;2022-12-29T11:29:14;35.03;;;20.23;;
3647;SDS011;1840;48.892;15.312;2022-12-29T11:31:47;34.77;;;22.23;;
3647;SDS011;1840;48.892;15.312;2022-12-29T11:34:19;34.57;;;21.07;;
3647;SDS011;1840;48.892;15.312;2022-12-29T11:36:49;34.00;;;20.77;;
3647;SDS011;1840;48.892;15.312;2022-12-29T11:39:29;45.73;;;22.50;;
3647;SDS011;1840;48.892;15.312;2022-12-29T11:42:01;34.10;;;21.20;;
3647;SDS011;1840;48.892;15.312;2022-12-29T11:44:31;32.27;;;18.80;;
3647;SDS011;1840;48.892;15.312;2022-12-29T11:47:04;35.80;;;20.07;;
3647;SDS011;1840;48.892;15.312;2022-12-29T11:49:37;32.73;;;19.80;;
3647;SDS011;1840;48.892;15.312;2022-12-29T11:52:06;35.30;;;18.63;;
3647;SDS011;1840;48.892;15.312;2022-12-29T11:54:36;33.13;;;19.63;;
3647;SDS011;1840;48.892;15.312;2022-12-29T11:57:09;35.17;;;22.47;;
3647;SDS011;1840;48.892;15.312;2022-12-29T11:59:43;40.13;;;22.23;;
3647;SDS011;1840;48.892;15.312;2022-12-29T12:02:25;38.67;;;21.57;;
3647;SDS011;1840;48.892;15.312;2022-12-29T12:05:11;35.60;;;21.13;;
3647;SDS011;1840;48.892;15.312;2022-12-29T12:07:46;34.33;;;21.73;;
3647;SDS011;1840;48.892;15.312;2022-12-29T12:10:18;34.30;;;20.37;;
3647;SDS011;1840;48.892;15.312;2022-12-29T12:12:52;36.50;;;20.97;;
3647;SDS011;1840;48.892;15.312;2022-12-29T12:15:27;33.43;;;22.10;;
3647;SDS011;1840;48.892;15.312;2022-12-29T12:18:00;34.17;;;22.07;;
3647;SDS011;1840;48.892;15.312;2022-12-29T12:20:36;31.23;;;20.17;;
3647;SDS011;1840;48.892;15.312;2022-12-29T12:23:16;34.00;;;21.20;;
3647;SDS011;1840;48.892;15.312;2022-12-29T12:25:56;30.00;;;18.03;;
3647;SDS011;1840;48.892;15.312;2022-12-29T12:28:33;31.20;;;18.00;;
3647;SDS011;1840;48.892;15.312;2022-12-29T12:31:12;28.40;;;17.50;;
3647;SDS011;1840;48.892;15.312;2022-12-29T12:33:46;31.93;;;16.60;;
3647;SDS011;1840;48.892;15.312;2022-12-29T12:36:22;32.63;;;18.50;;
3647;SDS011;1840;48.892;15.312;2022-12-29T12:39:17;34.40;;;21.27;;
3647;SDS011;1840;48.892;15.312;2022-12-29T12:41:55;31.73;;;19.03;;
3647;SDS011;1840;48.892;15.312;2022-12-29T12:44:36;27.73;;;16.87;;
3647;SDS011;1840;48.892;15.312;2022-12-29T12:47:16;26.67;;;16.17;;
3647;SDS011;1840;48.892;15.312;2022-12-29T12:50:02;29.30;;;16.80;;
3647;SDS011;1840;48.892;15.312;2022-12-29T12:52:45;29.90;;;17.40;;
3647;SDS011;1840;48.892;15.312;2022-12-29T12:55:30;38.33;;;19.27;;
3647;SDS011;1840;48.892;15.312;2022-12-29T12:58:10;45.97;;;17.47;;
3647;SDS011;1840;48.892;15.312;2022-12-29T13:00:53;31.63;;;17.00;;
3647;SDS011;1840;48.892;15.312;2022-12-29T13:03:41;26.40;;;16.50;;
3647;SDS011;1840;48.892;15.312;2022-12-29T13:06:19;26.63;;;16.80;;
3647;SDS011;1840;48.892;15.312;2022-12-29T13:09:00;22.83;;;15.53;;
3647;SDS011;1840;48.892;15.312;2022-12-29T13:11:44;28.60;;;17.50;;
3647;SDS011;1840;48.892;15.312;2022-12-29T13:14:26;24.60;;;15.40;;
3647;SDS011;1840;48.892;15.312;2022-12-29T13:17:05;34.17;;;18.53;;
3647;SDS011;1840;48.892;15.312;2022-12-29T13:19:40;28.50;;;17.97;;
3647;SDS011;1840;48.892;15.312;2022-12-29T13:22:16;26.50;;;15.73;;
3647;SDS011;1840;48.892;15.312;2022-12-29T13:24:55;28.27;;;16.70;;
3647;SDS011;1840;48.892;15.312;2022-12-29T13:27:37;29.27;;;16.00;;
3647;SDS011;1840;48.892;15.312;2022-12-29T13:30:12;39.37;;;21.47;;
3647;SDS011;1840;48.892;15.312;2022-12-29T13:32:49;28.33;;;17.57;;
3647;SDS011;1840;48.892;15.312;2022-12-29T13:35:34;31.40;;;18.87;;
3647;SDS011;1840;48.892;15.312;2022-12-29T13:38:10;35.27;;;19.83;;
3647;SDS011;1840;48.892;15.312;2022-12-29T13:40:47;39.77;;;21.60;;
3647;SDS011;1840;48.892;15.312;2022-12-29T13:43:19;36.03;;;20.63;;
3647;SDS011;1840;48.892;15.312;2022-12-29T13:45:50;97.07;;;49.03;;
3647;SDS011;1840;48.892;15.312;2022-12-29T13:48:26;30.20;;;19.83;;
3647;SDS011;1840;48.892;15.312;2022-12-29T13:51:03;40.90;;;19.77;;
3647;SDS011;1840;48.892;15.312;2022-12-29T13:53:34;36.00;;;18.60;;
3647;SDS011;1840;48.892;15.312;2022-12-29T13:56:12;28.47;;;17.33;;
3647;SDS011;1840;48.892;15.312;2022-12-29T13:58:48;36.70;;;17.37;;
3647;SDS011;1840;48.892;15.312;2022-12-29T14:01:22;37.03;;;19.00;;
3647;SDS011;1840;48.892;15.312;2022-12-29T14:03:56;29.40;;;17.80;;
3647;SDS011;1840;48.892;15.312;2022-12-29T14:06:26;34.20;;;18.60;;
3647;SDS011;1840;48.892;15.312;2022-12-29T14:08:55;28.10;;;19.47;;
3647;SDS011;1840;48.892;15.312;2022-12-29T14:11:30;42.83;;;25.83;;
3647;SDS011;1840;48.892;15.312;2022-12-29T14:13:59;73.77;;;28.33;;
3647;SDS011;1840;48.892;15.312;2022-12-29T14:16:38;76.97;;;40.13;;
3647;SDS011;1840;48.892;15.312;2022-12-29T14:19:11;38.13;;;21.83;;
3647;SDS011;1840;48.892;15.312;2022-12-29T14:21:49;42.17;;;18.70;;
3647;SDS011;1840;48.892;15.312;2022-12-29T14:33:15;41.80;;;25.77;;
3647;SDS011;1840;48.892;15.312;2022-12-29T14:35:44;36.63;;;21.17;;
3647;SDS011;1840;48.892;15.312;2022-12-29T14:38:17;40.10;;;21.10;;
3647;SDS011;1840;48.892;15.312;2022-12-29T14:40:50;31.53;;;18.90;;
3647;SDS011;1840;48.892;15.312;2022-12-29T14:43:22;32.90;;;19.70;;
3647;SDS011;1840;48.892;15.312;2022-12-29T14:45:56;33.83;;;17.67;;
3647;SDS011;1840;48.892;15.312;2022-12-29T14:48:28;32.30;;;18.93;;
3647;SDS011;1840;48.892;15.312;2022-12-29T14:51:15;36.07;;;20.13;;
3647;SDS011;1840;48.892;15.312;2022-12-29T14:53:48;45.57;;;21.93;;
3647;SDS011;1840;48.892;15.312;2022-12-29T14:56:18;64.70;;;29.57;;
3647;SDS011;1840;48.892;15.312;2022-12-29T14:58:53;86.87;;;32.57;;
3647;SDS011;1840;48.892;15.312;2022-12-29T15:01:24;71.60;;;28.13;;
3647;SDS011;1840;48.892;15.312;2022-12-29T15:04:05;55.13;;;24.63;;
3647;SDS011;1840;48.892;15.312;2022-12-29T15:06:42;51.87;;;23.40;;
3647;SDS011;1840;48.892;15.312;2022-12-29T15:09:14;65.03;;;29.40;;
3647;SDS011;1840;48.892;15.312;2022-12-29T15:11:51;35.90;;;18.57;;
3647;SDS011;1840;48.892;15.312;2022-12-29T15:14:28;40.10;;;20.20;;
3647;SDS011;1840;48.892;15.312;2022-12-29T15:17:08;36.33;;;20.37;;
3647;SDS011;1840;48.892;15.312;2022-12-29T15:19:37;37.43;;;19.20;;